ハバロフスク の空港の天気 - METARとTAF

ハバロフスク空港 ( UHHH / KHV ) - ロシア ハバロフスク
飛行場実況気象(Metar)
観測時間09/23 10:00 VLAT (09/23 00:00 UTC)
風向・風速北東 12m/s
視程10km以上
天気現象
なし
気温11℃
湿度71%
気圧1018hPa
METARUHHH 230000Z 04012MPS CAVOK 11/06 Q1018 WS R05L R05L/090060 NOSIG RMK QFE757/1010
過去の天気等 Google飛行場航空写真 Wunderground天気予報

過去48時間のMETAR

飛行場予報(TAF)
発表時間: 9/23 08:50 VLAT (9/22 22:50 UTC)
予報対象時間: 23日10時 VLAT ~ 24日16時 VLAT
風向・風速北東 7m/s 瞬間風速 12m/s
視程10km以上
全天の4割程度の積乱雲 雲底高度 610m
23日10時 VLAT ~ 23日18時 VLAT に一時的に
風向・風速北東 12m/s 瞬間風速 17m/s
23日19時 VLAT ~ 23日20時 VLAT に徐々に
風向・風速北 3m/s
23日20時 VLAT ~ 24日16時 VLAT に一時的に
風向・風速西北西 8m/s
TAF UHHH 222250Z 2300/2406 05007G12MPS 9999 SCT020CB
TEMPO 2300/2308 04012G17MPS
BECMG 2309/2310 01003MPS
TEMPO 2310/2406 30008MPS